DAOB/TID METAR and TAF weather

Enter ICAO airport designator
Station Type Date Time Source
DAOB METAR 2021/09/16 10:00 UTC NOAA

DAOB 161000Z 25003KT 9000 FEW030 SCT090 26/13 Q1021


Station Type Date Time Source
DAOB Decoded METAR 2021/09/16 10:00 UTC NOAA

Tiaret, Algeria (DAOB) 35-15N 001-26E 1127M
Sep 16, 2021 - 06:00 AM EDT / 2021.09.16 1000 UTC
Wind: from the WSW (250 degrees) at 3 MPH (3 KT):0
Visibility: 5 mile(s):0
Sky conditions: partly cloudy
Temperature: 78 F (26 C)
Dew Point: 55 F (13 C)
Relative Humidity: 44%
Pressure (altimeter): 30.15 in. Hg (1021 hPa)
ob: DAOB 161000Z 25003KT 9000 FEW030 SCT090 26/13 Q1021
cycle: 10

Station Type Date Time Source
DAOB TAF 2021/09/16 06:30 UTC NOAA

TAF DAOB 160500Z 1606/1706 20008KT 8000 SCT026 PROB30 1615/1621 FEW026CB

Example: see airport list